Time;durP1;ratioP1;P1;durP2;ratioP2;P2;SDS_P1;SDS_P2;PMS_P1;PMS_P2;Temp;Humidity;BMP_temperature;BMP_pressure;BME280_temperature;BME280_humidity;BME280_pressure;Samples;Min_cycle;Max_cycle;Signal;HPM_P1;HPM_P2
2021/09/19 00:00:46;;;;;;;34.92;22.20;;;;;;;10.37;98.19;101748.50;5052331;28;20493;-75
2021/09/19 00:03:11;;;;;;;35.92;23.00;;;;;;;10.34;98.30;101744.25;5052614;28;20120;-76
2021/09/19 00:05:37;;;;;;;36.80;23.77;;;;;;;10.32;98.50;101748.81;5051239;28;20072;-75
2021/09/19 00:08:03;;;;;;;33.80;22.45;;;;;;;10.32;98.30;101755.94;5052331;28;20615;-76
2021/09/19 00:10:29;;;;;;;38.25;25.05;;;;;;;10.30;98.41;101749.88;5051470;28;20029;-76
2021/09/19 00:12:54;;;;;;;36.65;24.05;;;;;;;10.28;98.48;101746.50;5052025;28;20029;-75
2021/09/19 00:15:21;;;;;;;39.42;24.30;;;;;;;10.27;98.46;101747.44;5052721;28;20033;-75
2021/09/19 00:17:47;;;;;;;27.58;18.90;;;;;;;10.22;98.38;101748.63;5052128;28;20524;-75
2021/09/19 00:20:14;;;;;;;31.65;21.02;;;;;;;10.21;98.51;101752.28;5051455;28;20035;-75
2021/09/19 00:22:40;;;;;;;34.70;22.23;;;;;;;10.18;98.21;101743.66;5052667;28;20052;-75
2021/09/19 00:25:07;;;;;;;35.40;22.42;;;;;;;10.15;98.19;101746.56;5051796;28;20029;-75
2021/09/19 00:27:33;;;;;;;33.72;22.02;;;;;;;10.13;98.41;101740.50;5052382;28;20073;-76
2021/09/19 00:29:58;;;;;;;36.72;24.17;;;;;;;10.11;98.57;101735.31;5052029;28;20060;-75
2021/09/19 00:32:25;;;;;;;32.92;21.80;;;;;;;10.08;98.58;101732.88;5052591;28;20364;-75
2021/09/19 00:34:50;;;;;;;33.15;21.77;;;;;;;10.06;98.75;101735.66;5051960;28;20056;-75
2021/09/19 00:37:15;;;;;;;33.30;23.13;;;;;;;10.04;98.68;101729.56;5052210;28;20025;-75
2021/09/19 00:39:41;;;;;;;34.45;23.10;;;;;;;10.02;98.51;101734.16;5052516;28;20390;-75
2021/09/19 00:42:06;;;;;;;32.42;22.13;;;;;;;10.00;98.69;101729.91;5051928;28;20106;-75
2021/09/19 00:44:32;;;;;;;33.50;21.85;;;;;;;9.96;98.59;101724.00;5052489;28;20110;-75
2021/09/19 00:46:57;;;;;;;34.45;21.52;;;;;;;9.95;98.69;101721.44;5051763;28;20029;-75
2021/09/19 00:49:23;;;;;;;29.75;21.40;;;;;;;9.94;98.94;101717.09;5051279;28;20029;-76
2021/09/19 00:51:49;;;;;;;33.90;21.55;;;;;;;9.91;98.77;101715.50;5051162;28;20052;-75
2021/09/19 00:54:16;;;;;;;31.20;20.25;;;;;;;9.89;98.73;101718.28;5056639;28;20028;-75
2021/09/19 00:56:44;;;;;;;29.73;19.27;;;;;;;9.87;98.74;101719.38;5056249;28;20036;-75
2021/09/19 00:59:10;;;;;;;30.50;20.88;;;;;;;9.86;98.89;101726.47;5055430;28;20476;-75
2021/09/19 01:01:35;;;;;;;26.17;19.13;;;;;;;9.83;99.00;101721.38;5056462;28;20120;-75
2021/09/19 01:04:01;;;;;;;35.05;22.05;;;;;;;9.84;99.18;101722.25;5055353;28;20056;-75
2021/09/19 01:06:28;;;;;;;29.92;20.10;;;;;;;9.82;99.25;101726.81;5056216;28;20051;-75
2021/09/19 01:08:53;;;;;;;32.80;21.95;;;;;;;9.81;99.37;101725.13;5055542;28;20108;-75
2021/09/19 01:11:20;;;;;;;32.55;21.05;;;;;;;9.79;99.58;101727.91;5056305;28;20497;-75
2021/09/19 01:13:47;;;;;;;30.75;20.58;;;;;;;9.77;99.63;101721.00;5055937;28;20033;-75
2021/09/19 01:16:14;;;;;;;29.92;20.15;;;;;;;9.75;99.53;101721.09;5055166;28;20500;-75
2021/09/19 01:18:41;;;;;;;28.17;17.77;;;;;;;9.71;99.39;101717.81;5055737;28;20052;-75
2021/09/19 01:21:09;;;;;;;32.33;20.85;;;;;;;9.70;99.27;101715.25;5055235;28;20441;-75
2021/09/19 01:23:36;;;;;;;34.53;21.92;;;;;;;9.69;99.50;101713.59;5055729;28;20021;-76
2021/09/19 01:26:02;;;;;;;29.17;20.02;;;;;;;9.69;99.50;101710.94;5055091;28;20033;-75
2021/09/19 01:28:27;;;;;;;34.22;20.63;;;;;;;9.71;99.80;101704.53;5055386;28;20081;-75
2021/09/19 01:30:53;;;;;;;37.88;21.55;;;;;;;9.70;99.99;101699.31;5055125;28;20395;-75
2021/09/19 01:33:19;;;;;;;36.25;21.35;;;;;;;9.68;99.90;101702.09;5055958;28;20032;-75
2021/09/19 01:35:44;;;;;;;30.75;20.10;;;;;;;9.68;100.00;101702.09;5055681;28;20033;-75
2021/09/19 01:38:10;;;;;;;26.83;18.75;;;;;;;9.65;100.00;101694.34;5037125;28;20025;-75
2021/09/19 01:40:35;;;;;;;30.75;20.10;;;;;;;9.64;100.00;101689.16;5055463;28;20033;-75
2021/09/19 01:43:01;;;;;;;32.35;20.67;;;;;;;9.61;100.00;101700.00;5054937;28;20029;-75
2021/09/19 01:45:27;;;;;;;28.92;20.35;;;;;;;9.60;99.89;101692.97;5055408;28;20037;-75
2021/09/19 01:47:53;;;;;;;29.25;20.85;;;;;;;9.56;100.00;101697.69;5055372;28;20031;-75
2021/09/19 01:50:20;;;;;;;34.15;20.35;;;;;;;9.54;100.00;101694.31;5054732;28;20025;-75
2021/09/19 01:52:46;;;;;;;27.30;18.92;;;;;;;9.51;100.00;101692.69;5055019;28;20043;-76
2021/09/19 01:55:11;;;;;;;38.50;21.73;;;;;;;9.48;100.00;101690.28;5054696;28;20029;-75
2021/09/19 01:57:37;;;;;;;32.08;20.15;;;;;;;9.46;100.00;101697.47;5054971;28;20461;-75
2021/09/19 02:00:03;;;;;;;30.92;19.85;;;;;;;9.44;100.00;101695.91;5054580;28;20372;-75
2021/09/19 02:02:33;;;;;;;31.65;20.33;;;;;;;9.42;100.00;101689.84;5055160;28;20029;-75
2021/09/19 02:04:58;;;;;;;38.75;23.20;;;;;;;9.42;100.00;101695.16;5054516;28;20067;-75
2021/09/19 02:07:23;;;;;;;31.65;21.10;;;;;;;9.42;100.00;101693.38;5054955;28;20053;-75
2021/09/19 02:09:49;;;;;;;42.03;23.60;;;;;;;9.41;100.00;101691.66;5055015;28;20093;-75
2021/09/19 02:12:14;;;;;;;34.70;22.10;;;;;;;9.41;100.00;101689.00;5054482;28;20372;-75
2021/09/19 02:14:41;;;;;;;32.05;20.35;;;;;;;9.41;100.00;101690.84;5055058;28;20033;-75
2021/09/19 02:17:06;;;;;;;34.50;21.52;;;;;;;9.42;100.00;101682.75;5054208;28;20044;-75
2021/09/19 02:19:32;;;;;;;37.25;22.70;;;;;;;9.44;100.00;101682.63;5054851;28;20029;-75
2021/09/19 02:21:57;;;;;;;33.63;20.45;;;;;;;9.43;100.00;101684.44;5054099;28;20029;-75
2021/09/19 02:24:22;;;;;;;28.90;18.92;;;;;;;9.40;100.00;101674.03;5054457;28;20033;-75
2021/09/19 02:26:48;;;;;;;37.25;21.00;;;;;;;9.37;100.00;101671.59;5054658;28;20043;-75
2021/09/19 02:29:13;;;;;;;29.95;19.92;;;;;;;9.34;100.00;101678.00;5053673;28;20043;-75
2021/09/19 02:31:39;;;;;;;35.72;22.35;;;;;;;9.32;100.00;101673.75;5054640;28;20055;-75
2021/09/19 02:34:04;;;;;;;39.53;24.88;;;;;;;9.32;100.00;101673.75;5054000;28;20035;-75
2021/09/19 02:36:29;;;;;;;37.70;23.67;;;;;;;9.33;100.00;101678.06;5054558;28;20449;-75
2021/09/19 02:38:55;;;;;;;36.83;22.50;;;;;;;9.29;100.00;101674.81;5054613;28;20029;-75
2021/09/19 02:41:23;;;;;;;35.15;22.35;;;;;;;9.30;100.00;101673.84;5053998;28;20083;-75
2021/09/19 02:43:49;;;;;;;39.90;23.23;;;;;;;9.27;100.00;101675.88;5054395;28;20140;-75
2021/09/19 02:46:14;;;;;;;45.03;25.27;;;;;;;9.25;100.00;101669.81;5053496;28;20017;-75
2021/09/19 02:48:39;;;;;;;37.40;23.75;;;;;;;9.22;100.00;101672.72;5054252;28;20028;-75
2021/09/19 02:51:05;;;;;;;30.55;20.63;;;;;;;9.18;100.00;101675.59;5053123;28;20472;-75
2021/09/19 02:53:30;;;;;;;41.35;25.73;;;;;;;9.16;100.00;101676.66;5054258;28;20445;-75
2021/09/19 02:55:55;;;;;;;32.47;21.67;;;;;;;9.14;100.00;101667.94;5054189;28;20064;-75
2021/09/19 02:58:21;;;;;;;28.90;19.17;;;;;;;9.10;100.00;101672.59;5053194;28;20037;-75
2021/09/19 03:00:46;;;;;;;25.90;16.95;;;;;;;9.08;100.00;101671.03;5054090;28;20040;-76
2021/09/19 03:03:12;;;;;;;27.38;18.58;;;;;;;9.06;100.00;101665.84;5053498;28;20056;-76
2021/09/19 03:05:37;;;;;;;28.63;18.35;;;;;;;9.04;100.00;101670.41;5053672;28;20365;-75
2021/09/19 03:08:03;;;;;;;25.77;17.13;;;;;;;9.00;100.00;101660.94;5053609;28;20445;-75
2021/09/19 03:10:28;;;;;;;25.48;17.27;;;;;;;8.97;99.93;101659.38;5054380;28;20025;-75
2021/09/19 03:12:54;;;;;;;37.50;22.85;;;;;;;8.98;100.00;101652.25;5053959;28;20380;-75
2021/09/19 03:15:19;;;;;;;40.67;24.52;;;;;;;8.97;100.00;101656.72;5051730;28;20025;-75
2021/09/19 03:17:45;;;;;;;32.40;22.20;;;;;;;8.94;100.00;101659.59;5053672;28;20090;-76
2021/09/19 03:20:13;;;;;;;29.90;20.48;;;;;;;8.91;100.00;101659.81;5053046;28;20029;-75
2021/09/19 03:22:39;;;;;;;30.98;21.05;;;;;;;8.89;100.00;101660.88;5053670;28;20025;-75
2021/09/19 03:25:06;;;;;;;60.85;32.10;;;;;;;8.93;100.00;101663.19;5052766;28;20380;-75
2021/09/19 03:27:32;;;;;;;41.13;24.65;;;;;;;8.95;100.00;101663.94;5053454;28;20043;-75
2021/09/19 03:29:58;;;;;;;46.45;26.13;;;;;;;8.96;100.00;101660.31;5053368;28;20025;-75
2021/09/19 03:32:24;;;;;;;40.22;24.45;;;;;;;9.00;100.00;101658.28;5052651;28;20492;-75
2021/09/19 03:34:50;;;;;;;43.88;26.25;;;;;;;9.02;100.00;101660.84;5051929;28;20040;-75
2021/09/19 03:37:15;;;;;;;40.00;25.15;;;;;;;9.00;100.00;101658.28;5052515;28;20025;-75
2021/09/19 03:39:40;;;;;;;44.30;25.00;;;;;;;8.98;100.00;101653.09;5053114;28;20029;-75
2021/09/19 03:42:06;;;;;;;57.80;32.13;;;;;;;8.98;100.00;101653.09;5052445;28;20020;-74
2021/09/19 03:44:31;;;;;;;44.33;27.20;;;;;;;8.98;100.00;101653.09;5052971;28;20025;-75
2021/09/19 03:46:56;;;;;;;49.83;29.92;;;;;;;8.98;100.00;101653.09;5051706;28;20029;-75
2021/09/19 03:49:22;;;;;;;41.97;24.77;;;;;;;8.95;100.00;101653.31;5052287;28;20063;-75
2021/09/19 03:51:47;;;;;;;45.90;26.50;;;;;;;8.95;100.00;101649.81;5053417;28;20032;-75
2021/09/19 03:54:13;;;;;;;42.03;24.63;;;;;;;8.94;100.00;101645.47;5052520;28;20506;-75
2021/09/19 03:56:38;;;;;;;45.10;27.05;;;;;;;8.92;100.00;101647.38;5052876;28;20082;-75
2021/09/19 03:59:04;;;;;;;41.67;25.88;;;;;;;8.90;100.00;101644.00;5053124;28;20059;-75
2021/09/19 04:01:29;;;;;;;42.45;25.42;;;;;;;8.88;100.00;101648.56;5052326;28;20036;-75
2021/09/19 04:03:54;;;;;;;47.50;28.38;;;;;;;8.87;100.00;101646.84;5052914;28;20406;-75
2021/09/19 04:06:20;;;;;;;43.65;25.80;;;;;;;8.85;100.00;101644.28;5051956;28;20053;-75
2021/09/19 04:08:45;;;;;;;43.45;25.13;;;;;;;8.81;100.00;101645.50;5052864;28;20365;-75
2021/09/19 04:11:10;;;;;;;46.33;27.17;;;;;;;8.79;100.00;101639.44;5052219;28;20108;-75
2021/09/19 04:13:36;;;;;;;48.75;28.70;;;;;;;8.74;100.00;101634.44;5052601;28;20116;-75
2021/09/19 04:16:01;;;;;;;42.25;25.58;;;;;;;8.72;100.00;101639.03;5051484;28;20041;-75
2021/09/19 04:18:27;;;;;;;34.50;22.10;;;;;;;8.69;100.00;101636.59;5052111;28;20020;-75
2021/09/19 04:20:53;;;;;;;44.95;25.45;;;;;;;8.67;100.00;101638.47;5052822;28;20029;-76
2021/09/19 04:23:18;;;;;;;35.45;23.15;;;;;;;8.65;100.00;101641.25;5052346;28;20020;-75
2021/09/19 04:25:43;;;;;;;37.38;23.88;;;;;;;8.65;100.00;101640.41;5052152;28;20527;-76
2021/09/19 04:28:09;;;;;;;38.35;23.13;;;;;;;8.62;100.00;101636.16;5052193;28;20029;-75
2021/09/19 04:30:34;;;;;;;39.55;24.85;;;;;;;8.61;100.00;101633.59;5051772;28;20029;-75
2021/09/19 04:32:59;;;;;;;51.75;28.15;;;;;;;8.60;100.00;101631.94;5052315;28;20525;-75
2021/09/19 04:35:25;;;;;;;46.03;26.13;;;;;;;8.56;100.00;101625.13;5051915;28;20364;-75
2021/09/19 04:37:50;;;;;;;50.88;29.52;;;;;;;8.55;100.00;101629.56;5052433;28;20029;-75
2021/09/19 04:40:16;;;;;;;62.97;32.58;;;;;;;8.55;100.00;101626.06;5051862;28;20033;-75
2021/09/19 04:42:42;;;;;;;69.82;33.33;;;;;;;8.54;100.00;101634.97;5051705;28;20085;-75
2021/09/19 04:45:08;;;;;;;40.72;24.60;;;;;;;8.51;100.00;101629.88;5052453;28;20025;-75
2021/09/19 04:47:34;;;;;;;59.72;30.23;;;;;;;8.51;100.00;101633.41;5050581;28;20017;-75
2021/09/19 04:49:59;;;;;;;43.42;25.33;;;;;;;8.50;100.00;101641.47;5052437;28;20029;-75
2021/09/19 04:52:25;;;;;;;53.72;30.27;;;;;;;8.46;100.00;101639.03;5051552;28;20374;-75
2021/09/19 04:54:50;;;;;;;43.08;25.08;;;;;;;8.43;100.00;101633.91;5051735;28;20385;-75
2021/09/19 04:57:15;;;;;;;48.05;27.17;;;;;;;8.42;100.00;101637.50;5049660;28;20061;-74
2021/09/19 04:59:41;;;;;;;50.72;28.70;;;;;;;8.42;100.00;101634.00;5051320;28;20060;-74
2021/09/19 05:02:06;;;;;;;51.58;27.77;;;;;;;8.40;100.00;101633.25;5051708;28;20043;-75
2021/09/19 05:04:32;;;;;;;45.25;25.60;;;;;;;8.40;100.00;101635.91;5050952;28;20033;-75
2021/09/19 05:06:57;;;;;;;65.45;32.42;;;;;;;8.41;100.00;101633.16;5050019;28;20062;-75
2021/09/19 05:09:23;;;;;;;71.20;35.33;;;;;;;8.39;100.00;101629.78;5050951;28;20104;-75
2021/09/19 05:11:49;;;;;;;45.47;26.45;;;;;;;8.41;100.00;101640.28;5051466;28;20119;-75
2021/09/19 05:14:14;;;;;;;39.47;23.70;;;;;;;8.38;100.00;101637.84;5051530;28;20365;-75
2021/09/19 05:16:40;;;;;;;59.92;29.65;;;;;;;8.38;100.00;101636.00;5051702;28;20519;-74
2021/09/19 05:19:05;;;;;;;38.60;23.52;;;;;;;8.36;100.00;101639.72;5051770;28;20025;-75
2021/09/19 05:21:31;;;;;;;48.25;26.35;;;;;;;8.37;100.00;101636.97;5051129;28;20032;-75
2021/09/19 05:23:57;;;;;;;44.90;25.63;;;;;;;8.37;100.00;101647.56;5051120;28;20057;-75
2021/09/19 05:26:23;;;;;;;46.38;26.60;;;;;;;8.37;100.00;101642.25;5048383;28;20025;-75
2021/09/19 05:28:48;;;;;;;30.70;19.13;;;;;;;8.37;100.00;101647.56;5049819;28;20029;-75
2021/09/19 05:31:14;;;;;;;52.30;29.60;;;;;;;8.38;100.00;101646.63;5051504;28;20361;-75
2021/09/19 05:33:40;;;;;;;51.63;28.92;;;;;;;8.42;100.00;101640.16;5051326;28;20025;-75
2021/09/19 05:36:06;;;;;;;69.68;34.97;;;;;;;8.44;100.00;101640.94;5051404;28;20029;-75
2021/09/19 05:38:31;;;;;;;61.03;30.85;;;;;;;8.50;100.00;101637.00;5052648;28;20070;-75
2021/09/19 05:40:56;;;;;;;52.00;26.92;;;;;;;8.52;100.00;101636.91;5055014;28;20028;-75
2021/09/19 05:43:22;;;;;;;57.72;29.55;;;;;;;8.53;100.00;101635.97;5054219;28;20063;-75
2021/09/19 05:45:47;;;;;;;63.22;31.67;;;;;;;8.57;100.00;101637.41;5054940;28;20021;-74
2021/09/19 05:48:13;;;;;;;79.15;36.70;;;;;;;8.61;100.00;101646.88;5055219;28;20024;-75
2021/09/19 05:50:38;;;;;;;68.68;33.92;;;;;;;8.65;100.00;101640.41;5054058;28;20423;-75
2021/09/19 05:53:04;;;;;;;63.25;32.10;;;;;;;8.69;100.00;101643.69;5054318;28;20025;-75
2021/09/19 05:55:29;;;;;;;80.88;36.63;;;;;;;8.74;100.00;101645.06;5054043;28;20035;-75
2021/09/19 05:57:55;;;;;;;76.95;35.78;;;;;;;8.80;100.00;101644.63;5055288;28;20091;-75
2021/09/19 06:00:20;;;;;;;66.93;33.97;;;;;;;8.86;100.00;101646.00;5054782;28;20029;-75
2021/09/19 06:02:46;;;;;;;94.10;40.10;;;;;;;8.94;100.00;101654.28;5055070;28;20108;-75
2021/09/19 06:05:11;;;;;;;64.28;32.80;;;;;;;9.04;100.00;101651.81;5037278;28;20361;-75
2021/09/19 06:07:37;;;;;;;81.97;35.97;;;;;;;9.08;100.00;101655.94;5054558;28;20048;-74
2021/09/19 06:10:04;;;;;;;67.93;32.95;;;;;;;9.13;100.00;101655.63;5054703;28;20464;-74
2021/09/19 06:12:29;;;;;;;64.90;33.15;;;;;;;9.17;100.00;101652.63;5054201;28;20025;-75
2021/09/19 06:14:55;;;;;;;70.50;33.90;;;;;;;9.24;100.00;101655.72;5054938;28;20372;-74
2021/09/19 06:17:21;;;;;;;67.93;33.40;;;;;;;9.30;100.00;101657.06;5052426;28;20037;-74
2021/09/19 06:19:50;;;;;;;67.57;33.60;;;;;;;9.37;100.00;101653.00;5054099;28;20020;-75
2021/09/19 06:22:16;;;;;;;69.50;33.58;;;;;;;9.45;100.00;101657.75;5054520;28;20036;-74
2021/09/19 06:24:42;;;;;;;72.93;34.30;;;;;;;9.52;100.00;101667.84;5054067;28;20299;-71
2021/09/19 06:27:07;;;;;;;65.57;32.53;;;;;;;9.61;100.00;101662.81;5054480;28;20060;-72
2021/09/19 06:29:33;;;;;;;73.07;34.75;;;;;;;9.67;100.00;101663.22;5054039;28;20028;-74
2021/09/19 06:31:58;;;;;;;76.53;36.25;;;;;;;9.76;100.00;101655.50;5070278;28;20115;-73
2021/09/19 06:34:24;;;;;;;79.38;37.33;;;;;;;9.87;100.00;101660.88;5052246;28;20374;-73
2021/09/19 06:36:49;;;;;;;71.57;35.42;;;;;;;9.96;100.00;101649.56;5051137;28;20037;-73
2021/09/19 06:39:15;;;;;;;71.20;36.00;;;;;;;10.05;100.00;101646.19;5051721;28;20063;-74
2021/09/19 06:41:40;;;;;;;71.55;33.63;;;;;;;10.16;100.00;101652.53;5051420;28;20029;-74
2021/09/19 06:44:06;;;;;;;65.85;32.60;;;;;;;10.26;100.00;101650.84;5051781;28;20036;-73
2021/09/19 06:46:33;;;;;;;65.50;33.45;;;;;;;10.39;100.00;101656.13;5050498;28;20025;-73
2021/09/19 06:49:00;;;;;;;70.60;33.83;;;;;;;10.49;100.00;101654.44;5050920;28;20090;-73
2021/09/19 06:51:26;;;;;;;61.55;32.80;;;;;;;10.63;100.00;101664.03;5050293;28;20104;-73
2021/09/19 06:53:52;;;;;;;54.35;31.40;;;;;;;10.73;100.00;101670.31;5051568;28;20155;-74
2021/09/19 06:56:20;;;;;;;52.58;29.27;;;;;;;10.85;100.00;101673.84;5051316;28;20068;-74
2021/09/19 06:58:45;;;;;;;44.13;27.52;;;;;;;10.98;100.00;101680.84;5050898;28;20044;-74
2021/09/19 07:01:11;;;;;;;41.95;26.48;;;;;;;11.06;100.00;101675.75;5060824;28;20501;-75
2021/09/19 07:03:36;;;;;;;37.60;24.73;;;;;;;11.16;100.00;101678.56;5070739;28;20448;-75
2021/09/19 07:06:02;;;;;;;37.25;24.10;;;;;;;11.23;100.00;101679.75;5070828;28;20076;-74
2021/09/19 07:08:27;;;;;;;38.90;22.92;;;;;;;11.30;100.00;101680.97;5070484;28;20460;-74
2021/09/19 07:10:53;;;;;;;31.92;22.80;;;;;;;11.39;100.00;101682.88;5070905;28;20024;-74
2021/09/19 07:13:21;;;;;;;31.23;21.67;;;;;;;11.52;100.00;101685.38;5070303;28;20021;-74
2021/09/19 07:15:52;;;;;;;30.60;21.08;;;;;;;11.68;100.00;101685.00;5055097;28;20344;-74
2021/09/19 07:18:22;;;;;;;27.75;20.73;;;;;;;11.80;99.38;101688.47;5050360;28;20110;-74
2021/09/19 07:20:48;;;;;;;27.23;19.40;;;;;;;11.89;97.86;101690.38;5049646;28;20043;-74
2021/09/19 07:23:13;;;;;;;23.85;18.70;;;;;;;11.99;97.53;101693.16;5050775;28;20029;-74
2021/09/19 07:25:39;;;;;;;23.92;18.58;;;;;;;12.12;97.02;101692.97;5049867;28;20377;-72
2021/09/19 07:28:06;;;;;;;25.77;18.23;;;;;;;12.23;96.31;101690.25;5050509;28;20076;-72
2021/09/19 07:30:33;;;;;;;22.52;16.73;;;;;;;12.32;95.67;101693.97;5055701;28;20024;-74
2021/09/19 07:32:59;;;;;;;23.95;17.40;;;;;;;12.42;94.75;101686.88;5070408;28;20067;-72
2021/09/19 07:35:24;;;;;;;20.15;16.00;;;;;;;12.55;94.55;101685.84;5050906;28;20060;-72
2021/09/19 07:37:50;;;;;;;19.85;16.38;;;;;;;12.66;93.83;101686.59;5048397;28;20024;-72
2021/09/19 07:40:16;;;;;;;18.02;15.35;;;;;;;12.77;92.36;101688.34;5052646;28;20044;-72
2021/09/19 07:42:41;;;;;;;17.83;15.13;;;;;;;12.93;92.82;101692.34;5052319;28;20029;-72
2021/09/19 07:45:08;;;;;;;18.42;14.63;;;;;;;13.06;93.18;101687.63;5052997;28;20350;-71
2021/09/19 07:47:33;;;;;;;17.52;14.70;;;;;;;13.20;91.87;101694.44;5050974;28;20029;-72
2021/09/19 07:49:59;;;;;;;17.10;14.30;;;;;;;13.33;91.98;101681.69;5052841;28;20036;-71
2021/09/19 07:52:25;;;;;;;18.77;13.85;;;;;;;13.47;91.18;101680.47;5052891;28;20341;-71
2021/09/19 07:54:54;;;;;;;15.48;13.15;;;;;;;13.60;90.58;101677.56;5052292;28;20705;-71
2021/09/19 07:57:20;;;;;;;17.77;12.93;;;;;;;13.74;89.52;101684.31;5052851;28;20052;-71
2021/09/19 07:59:45;;;;;;;13.18;11.77;;;;;;;13.90;88.79;101681.09;5052139;28;20029;-72
2021/09/19 08:02:10;;;;;;;15.30;11.32;;;;;;;14.30;87.57;101677.38;5071920;28;20470;-71
2021/09/19 08:04:36;;;;;;;12.50;10.05;;;;;;;14.88;85.55;101678.25;5053449;28;20036;-72
2021/09/19 08:07:01;;;;;;;12.32;10.23;;;;;;;15.27;83.23;101672.72;5052100;28;20120;-71
2021/09/19 08:09:26;;;;;;;12.52;10.15;;;;;;;15.50;80.92;101675.84;5052211;28;20480;-72
2021/09/19 08:11:53;;;;;;;11.43;9.65;;;;;;;15.80;80.61;101671.97;5051597;28;20773;-72
2021/09/19 08:14:18;;;;;;;10.95;8.68;;;;;;;15.83;79.26;101676.19;5056580;28;20487;-75
2021/09/19 08:16:44;;;;;;;13.80;8.30;;;;;;;15.95;79.19;101683.00;5071278;28;20024;-77
2021/09/19 08:19:09;;;;;;;8.95;8.05;;;;;;;16.06;78.19;101687.28;5072657;28;20132;-76
2021/09/19 08:21:36;;;;;;;8.82;7.65;;;;;;;16.13;76.40;101687.53;5053967;28;20033;-82
2021/09/19 08:24:03;;;;;;;8.45;7.55;;;;;;;16.32;76.83;101687.34;5052073;28;20381;-86
2021/09/19 08:26:29;;;;;;;9.07;7.05;;;;;;;16.38;76.27;101681.34;5052290;28;20025;-81
2021/09/19 08:28:54;;;;;;;8.05;7.25;;;;;;;16.58;75.00;101689.19;5049964;28;20047;-78
2021/09/19 08:31:20;;;;;;;7.90;7.10;;;;;;;16.85;74.62;101692.72;5052173;28;20033;-80
2021/09/19 08:33:46;;;;;;;6.90;6.30;;;;;;;17.20;74.05;101691.75;5050581;28;20070;-80
2021/09/19 08:36:11;;;;;;;9.52;6.75;;;;;;;17.60;72.32;101689.34;5051190;28;20116;-84
2021/09/19 08:38:37;;;;;;;7.10;6.20;;;;;;;18.08;68.75;101690.47;5052605;28;20439;-86
2021/09/19 08:41:02;;;;;;;8.15;6.32;;;;;;;18.60;66.72;101696.47;5050927;28;20037;-80
2021/09/19 08:43:28;;;;;;;8.32;5.88;;;;;;;19.36;63.92;101686.97;5052179;28;20025;-81
2021/09/19 08:45:53;;;;;;;8.30;6.00;;;;;;;19.87;61.68;101685.66;5070902;28;20028;-82
2021/09/19 08:48:20;;;;;;;11.98;5.55;;;;;;;20.16;59.83;101689.50;5072890;28;20028;-83
2021/09/19 08:50:49;;;;;;;6.43;5.40;;;;;;;20.55;58.88;101699.28;5071641;28;20028;-80
2021/09/19 08:53:15;;;;;;;7.78;5.28;;;;;;;21.10;57.13;101694.47;5072290;28;20017;-79
2021/09/19 08:55:42;;;;;;;5.60;4.90;;;;;;;21.57;55.91;101687.78;5071802;28;20032;-79
2021/09/19 08:58:08;;;;;;;5.97;5.30;;;;;;;22.07;54.56;101685.13;5071975;28;20476;-80
2021/09/19 09:00:39;;;;;;;5.60;4.93;;;;;;;22.68;52.31;101690.00;5072515;28;20029;-80
2021/09/19 09:03:11;;;;;;;5.30;4.80;;;;;;;23.35;51.26;101693.09;5072270;28;20024;-80
2021/09/19 09:05:37;;;;;;;5.40;4.70;;;;;;;23.22;49.74;101691.16;5071804;28;20574;-78
2021/09/19 09:08:05;;;;;;;5.03;4.53;;;;;;;23.41;49.97;101686.00;5071567;28;20036;-80
2021/09/19 09:10:43;;;;;;;4.97;4.15;;;;;;;23.37;49.13;101692.88;5072688;28;20028;-79
2021/09/19 09:13:17;;;;;;;4.65;4.25;;;;;;;23.85;48.70;101700.09;5073616;28;20464;-79
2021/09/19 09:15:47;;;;;;;4.80;4.20;;;;;;;24.15;47.27;101702.47;5075486;28;20025;-75
2021/09/19 09:18:15;;;;;;;6.72;4.85;;;;;;;24.16;46.30;101699.53;5076343;28;20032;-77
2021/09/19 09:20:51;;;;;;;5.30;4.35;;;;;;;24.13;47.05;101705.38;5075257;28;20031;-81
2021/09/19 09:23:21;;;;;;;4.30;3.90;;;;;;;24.56;47.00;101704.13;5075725;28;20035;-77
2021/09/19 09:26:19;;;;;;;6.28;3.90;;;;;;;24.68;45.11;101707.03;5074752;28;20024;-80
2021/09/19 09:29:15;;;;;;;8.23;4.30;;;;;;;24.72;44.23;101706.44;5074194;28;20044;-75
2021/09/19 09:31:44;;;;;;;6.40;4.40;;;;;;;24.63;44.39;101702.22;5065766;28;20075;-72
2021/09/19 09:34:15;;;;;;;4.65;3.80;;;;;;;24.61;45.32;101702.44;5075305;28;20032;-74
2021/09/19 09:37:02;;;;;;;7.22;4.07;;;;;;;24.70;44.33;101713.13;5075115;28;20075;-74
2021/09/19 09:39:32;;;;;;;5.03;4.10;;;;;;;24.90;44.89;101707.63;5075081;28;20398;-74
2021/09/19 09:42:05;;;;;;;5.35;3.78;;;;;;;24.61;44.74;101707.88;5074841;28;20050;-74
2021/09/19 09:44:34;;;;;;;5.80;4.25;;;;;;;24.96;45.84;101718.50;5075084;28;20372;-75
2021/09/19 09:47:06;;;;;;;5.72;4.00;;;;;;;24.32;44.70;101708.31;5074675;28;20035;-75
2021/09/19 09:49:41;;;;;;;5.20;4.13;;;;;;;25.04;43.52;101709.25;5074161;28;20341;-75
2021/09/19 09:52:12;;;;;;;7.55;3.97;;;;;;;25.36;43.32;101706.63;5074993;28;20452;-75
2021/09/19 09:54:46;;;;;;;6.85;4.10;;;;;;;25.25;44.47;101708.13;5074758;28;20461;-75
2021/09/19 09:57:14;;;;;;;4.18;3.72;;;;;;;25.57;43.76;101708.19;5075178;28;20372;-75
2021/09/19 09:59:43;;;;;;;3.83;3.53;;;;;;;26.18;41.40;101703.22;5075031;28;20427;-73
2021/09/19 10:02:11;;;;;;;5.85;3.92;;;;;;;26.33;41.39;101706.41;5074780;28;20031;-74
2021/09/19 10:04:37;;;;;;;4.30;3.80;;;;;;;26.00;42.13;101706.72;5074863;28;20036;-76
2021/09/19 10:07:03;;;;;;;4.65;3.55;;;;;;;26.29;42.51;101702.50;5074214;28;20044;-75
2021/09/19 10:09:29;;;;;;;6.50;3.70;;;;;;;26.23;41.28;101706.13;5074854;28;20029;-75
2021/09/19 10:11:55;;;;;;;4.80;4.30;;;;;;;26.15;40.93;101703.66;5074031;28;20464;-78
2021/09/19 10:14:22;;;;;;;4.95;3.20;;;;;;;26.22;42.92;101709.91;5074553;28;20025;-78
2021/09/19 10:16:48;;;;;;;4.10;3.70;;;;;;;26.25;40.20;101697.72;5074751;28;20036;-79
2021/09/19 10:19:14;;;;;;;5.25;4.13;;;;;;;26.01;41.79;101702.94;5075091;28;20046;-78
2021/09/19 10:21:45;;;;;;;6.32;4.07;;;;;;;24.94;42.58;101708.88;5073685;28;20103;-77
2021/09/19 10:24:11;;;;;;;4.40;3.65;;;;;;;25.29;43.25;101695.75;5073675;28;20021;-75
2021/09/19 10:26:58;;;;;;;5.15;4.03;;;;;;;25.91;43.05;101684.28;5073863;28;20033;-75
2021/09/19 10:29:28;;;;;;;6.85;3.88;;;;;;;26.45;40.37;101687.44;5074768;28;20035;-75
2021/09/19 10:31:57;;;;;;;4.50;3.50;;;;;;;26.47;39.82;101684.47;5073712;28;20076;-75
2021/09/19 10:34:28;;;;;;;6.00;4.05;;;;;;;26.40;40.61;101690.00;5074269;28;20056;-74
2021/09/19 10:36:55;;;;;;;5.57;4.10;;;;;;;26.11;41.83;101686.06;5073712;28;20036;-75
2021/09/19 10:39:30;;;;;;;4.90;3.65;;;;;;;25.83;42.38;101692.75;5074245;28;20032;-75
2021/09/19 10:42:16;;;;;;;4.78;4.28;;;;;;;25.98;41.70;101693.28;5073637;28;20031;-75
2021/09/19 10:44:44;;;;;;;7.35;4.32;;;;;;;25.85;42.29;101683.28;5074358;28;20056;-75
2021/09/19 10:47:11;;;;;;;4.60;4.10;;;;;;;26.19;40.63;101683.06;5073259;28;20028;-74
2021/09/19 10:49:38;;;;;;;4.97;4.20;;;;;;;26.38;40.97;101679.31;5073262;28;20104;-73
2021/09/19 10:52:03;;;;;;;4.75;3.72;;;;;;;26.38;40.50;101678.50;5073511;28;20083;-75
2021/09/19 10:54:49;;;;;;;5.30;4.10;;;;;;;26.08;40.93;101675.59;5073677;28;20448;-75
2021/09/19 10:57:29;;;;;;;5.32;3.97;;;;;;;26.32;41.05;101680.22;5073669;28;20352;-75
2021/09/19 11:00:15;;;;;;;9.93;4.30;;;;;;;25.78;41.95;101685.25;5072948;28;20526;-74
2021/09/19 11:02:42;;;;;;;4.97;4.43;;;;;;;26.06;40.82;101675.00;5062148;28;20025;-77
2021/09/19 11:05:21;;;;;;;6.50;4.63;;;;;;;25.85;42.62;101680.56;5053334;28;20025;-80
2021/09/19 11:07:49;;;;;;;4.80;4.30;;;;;;;26.11;42.24;101683.34;5053110;28;20128;-79
2021/09/19 11:10:14;;;;;;;8.63;4.30;;;;;;;25.86;41.48;101675.97;5053200;28;20077;-83
2021/09/19 11:12:44;;;;;;;4.80;4.30;;;;;;;25.99;42.11;101684.06;5052432;28;20064;-79